Terminal Aerodrome Forecast
Issued by NWS

Home | Current Version | Previous Version | Text Only | Print | Product List | Glossary On
Versions: 1 2 3 4 5 6 7 8 9 10 11 12 13 14 15 16 17 18 19 20 21 22 23 24 25 26 27 28 29 30 31 32
000
FTUS45 KGJT 291145
TAFRIL
TAF
KRIL 291145Z 2912/3012 29008KT P6SM -RA SCT025 OVC070
      TEMPO 2912/2913 BKN025
     FM291300 27006KT P6SM VCSH FEW040 SCT070 OVC100
     FM291900 32007KT P6SM VCTS SCT080CB SCT100 BKN150
      TEMPO 2921/2924 VRB15G25KT 3SM +TSRA SCT030 OVC040CB
     FM300000 10008KT P6SM -SHRA SCT040 OVC060=

USA.gov is the U.S. government's official web portal to all federal, state and local government web resources and services.